Time;durP1;ratioP1;P1;durP2;ratioP2;P2;SDS_P1;SDS_P2;PMS_P1;PMS_P2;Temp;Humidity;BMP_temperature;BMP_pressure;BME280_temperature;BME280_humidity;BME280_pressure;Samples;Min_cycle;Max_cycle;Signal;HPM_P1;HPM_P2
2023/06/23 00:01:05;;;;;;;0.52;0.52;;;17.60;99.90;;;;;;5091892;28;19969;-77
2023/06/23 00:03:31;;;;;;;8.07;1.17;;;17.60;99.90;;;;;;5092098;28;20097;-77
2023/06/23 00:05:57;;;;;;;;;;;17.60;99.90;;;;;;5091778;28;20481;-76
2023/06/23 00:08:22;;;;;;;1.42;1.42;;;17.60;99.90;;;;;;5074419;28;19923;-76
2023/06/23 00:10:48;;;;;;;;;;;17.60;99.90;;;;;;5091864;28;20138;-78
2023/06/23 00:13:15;;;;;;;0.55;0.28;;;17.60;99.90;;;;;;5090927;28;19943;-78
2023/06/23 00:15:41;;;;;;;0.65;0.65;;;17.60;99.90;;;;;;5091172;28;20090;-76
2023/06/23 00:18:07;;;;;;;;;;;17.60;99.90;;;;;;5091060;28;20083;-76
2023/06/23 00:20:32;;;;;;;0.30;0.30;;;17.50;99.90;;;;;;5091151;28;19924;-77
2023/06/23 00:22:58;;;;;;;;;;;17.60;99.90;;;;;;5091603;28;20126;-78
2023/06/23 00:25:23;;;;;;;0.68;0.68;;;17.50;99.90;;;;;;5090836;28;19969;-78
2023/06/23 00:27:49;;;;;;;;;;;17.50;99.90;;;;;;5074431;28;20036;-76
2023/06/23 00:30:15;;;;;;;0.30;0.30;;;17.50;99.90;;;;;;5090937;28;19923;-77
2023/06/23 00:32:43;;;;;;;0.17;0.17;;;17.50;99.90;;;;;;5090745;28;20032;-77
2023/06/23 00:35:09;;;;;;;2.92;0.40;;;17.50;99.90;;;;;;5090603;28;20056;-77
2023/06/23 00:37:38;;;;;;;0.40;0.40;;;17.50;99.90;;;;;;5090588;28;20499;-77
2023/06/23 00:40:05;;;;;;;0.40;0.40;;;17.50;99.90;;;;;;5090815;28;20097;-77
2023/06/23 00:42:31;;;;;;;0.77;0.77;;;17.50;99.90;;;;;;5107146;28;20531;-78
2023/06/23 00:44:57;;;;;;;0.57;0.55;;;17.50;99.90;;;;;;5090709;28;20047;-78
2023/06/23 00:47:24;;;;;;;;;;;17.50;99.90;;;;;;5090675;28;20047;-78
2023/06/23 00:49:50;;;;;;;0.85;0.85;;;17.50;99.90;;;;;;5090587;28;20412;-77
2023/06/23 00:52:16;;;;;;;;;;;17.50;99.90;;;;;;5090581;28;20048;-78
2023/06/23 00:54:42;;;;;;;0.43;0.40;;;17.50;99.90;;;;;;5073442;28;20348;-77
2023/06/23 00:57:10;;;;;;;0.43;0.43;;;17.50;99.90;;;;;;5090176;28;20141;-77
2023/06/23 00:59:36;;;;;;;0.52;0.52;;;17.50;99.90;;;;;;5089984;28;20043;-76
2023/06/23 01:02:02;;;;;;;;;;;17.50;99.90;;;;;;5090516;28;20131;-77
2023/06/23 01:04:33;;;;;;;0.27;0.27;;;17.50;99.90;;;;;;5089773;28;19920;-75
2023/06/23 01:07:17;;;;;;;1.00;0.82;;;17.60;99.90;;;;;;5090295;28;20059;-75
2023/06/23 01:10:09;;;;;;;0.38;0.38;;;17.60;99.90;;;;;;5090619;28;20047;-77
2023/06/23 01:12:57;;;;;;;0.35;0.28;;;17.60;99.90;;;;;;5089956;28;20044;-77
2023/06/23 01:15:34;;;;;;;0.43;0.43;;;17.50;99.90;;;;;;5089410;28;20051;-76
2023/06/23 01:18:15;;;;;;;0.20;0.20;;;17.50;99.90;;;;;;5089920;28;20044;-75
2023/06/23 01:20:45;;;;;;;0.73;0.63;;;17.50;99.90;;;;;;5089778;28;20044;-75
2023/06/23 01:23:45;;;;;;;0.30;0.30;;;17.50;99.90;;;;;;5089104;28;20048;-75
2023/06/23 01:26:41;;;;;;;0.30;0.30;;;17.50;99.90;;;;;;5082522;28;20113;-77
2023/06/23 01:29:09;;;;;;;0.20;0.20;;;17.40;99.90;;;;;;5089947;28;20051;-77
2023/06/23 01:31:55;;;;;;;0.45;0.45;;;17.40;99.90;;;;;;5089551;28;20575;-76
2023/06/23 01:34:25;;;;;;;0.20;0.20;;;17.30;99.90;;;;;;5072344;28;20055;-77
2023/06/23 01:36:58;;;;;;;0.22;0.22;;;17.40;99.90;;;;;;5089962;28;20282;-77
2023/06/23 01:39:27;;;;;;;0.52;0.40;;;17.30;99.90;;;;;;5089295;28;20044;-76
2023/06/23 01:42:07;;;;;;;0.68;0.68;;;17.40;99.90;;;;;;5089673;28;20048;-78
2023/06/23 01:44:35;;;;;;;0.30;0.30;;;17.30;99.90;;;;;;5088879;28;20132;-77
2023/06/23 01:47:07;;;;;;;0.20;0.20;;;17.40;99.90;;;;;;5089293;28;20062;-76
2023/06/23 01:49:37;;;;;;;0.32;0.32;;;17.30;99.90;;;;;;5088484;28;20129;-76
2023/06/23 01:52:06;;;;;;;4.18;0.32;;;17.30;99.90;;;;;;5088987;28;20048;-78
2023/06/23 01:54:34;;;;;;;0.30;0.30;;;17.30;99.90;;;;;;5088931;28;20052;-76
2023/06/23 01:57:00;;;;;;;0.20;0.20;;;17.30;99.90;;;;;;5089315;28;20054;-76
2023/06/23 01:59:28;;;;;;;0.20;0.20;;;17.30;99.90;;;;;;5088498;28;20044;-76
2023/06/23 02:01:55;;;;;;;0.93;0.80;;;17.30;99.90;;;;;;5089114;28;20051;-78
2023/06/23 02:04:21;;;;;;;0.32;0.32;;;17.30;99.90;;;;;;5088948;28;20052;-76
2023/06/23 02:06:50;;;;;;;0.70;0.40;;;17.30;99.90;;;;;;5089125;28;20054;-76
2023/06/23 02:09:22;;;;;;;0.60;0.60;;;17.30;99.90;;;;;;5089046;28;20048;-75
2023/06/23 02:11:49;;;;;;;0.55;0.55;;;17.30;99.90;;;;;;5089137;28;20083;-75
2023/06/23 02:14:15;;;;;;;0.20;0.20;;;17.30;99.90;;;;;;5089446;28;20109;-76
2023/06/23 02:16:43;;;;;;;0.93;0.65;;;17.30;99.90;;;;;;5072894;28;20136;-75
2023/06/23 02:19:11;;;;;;;0.60;0.57;;;17.30;99.90;;;;;;5089378;28;20404;-75
2023/06/23 02:21:38;;;;;;;0.20;0.20;;;17.30;99.90;;;;;;5072037;28;20123;-76
2023/06/23 02:24:06;;;;;;;0.35;0.25;;;17.30;99.90;;;;;;5089596;28;20097;-76
2023/06/23 02:26:34;;;;;;;0.28;0.28;;;17.40;99.90;;;;;;5088547;28;20075;-76
2023/06/23 02:29:01;;;;;;;0.45;0.30;;;17.40;99.90;;;;;;5088910;28;20068;-77
2023/06/23 02:31:27;;;;;;;0.20;0.20;;;17.40;99.90;;;;;;5088535;28;20106;-78
2023/06/23 02:33:53;;;;;;;;;;;17.40;99.90;;;;;;5089486;28;20044;-78
2023/06/23 02:36:25;;;;;;;0.47;0.30;;;17.40;99.90;;;;;;5090462;28;19926;-76
2023/06/23 02:38:54;;;;;;;0.63;0.63;;;17.40;99.90;;;;;;5093033;28;20109;-76
2023/06/23 02:41:22;;;;;;;0.30;0.30;;;17.40;99.90;;;;;;5092563;28;20048;-77
2023/06/23 02:43:51;;;;;;;0.20;0.20;;;17.40;99.90;;;;;;5092840;28;20045;-78
2023/06/23 02:46:27;;;;;;;0.20;0.20;;;17.40;99.90;;;;;;5092671;28;20078;-76
2023/06/23 02:49:00;;;;;;;0.28;0.28;;;17.40;99.90;;;;;;5093002;28;20044;-77
2023/06/23 02:51:27;;;;;;;0.25;0.25;;;17.40;99.90;;;;;;5092446;28;20119;-76
2023/06/23 02:54:17;;;;;;;0.47;0.45;;;17.40;99.90;;;;;;5092708;28;20060;-75
2023/06/23 02:56:46;;;;;;;1.67;1.40;;;17.40;99.90;;;;;;5085126;28;20044;-77
2023/06/23 02:59:16;;;;;;;4.75;2.17;;;17.40;99.90;;;;;;5092686;28;20093;-78
2023/06/23 03:01:46;;;;;;;0.10;0.10;;;17.30;99.90;;;;;;5092497;28;20447;-77
2023/06/23 03:04:12;;;;;;;0.98;0.50;;;17.30;99.90;;;;;;5092045;28;20139;-76
2023/06/23 03:06:38;;;;;;;;;;;17.30;99.90;;;;;;5092622;28;20122;-78
2023/06/23 03:09:05;;;;;;;0.40;0.40;;;17.20;99.90;;;;;;5091782;28;19920;-77
2023/06/23 03:11:32;;;;;;;0.60;0.60;;;17.20;99.90;;;;;;5075257;28;20052;-77
2023/06/23 03:13:58;;;;;;;0.85;0.70;;;17.10;99.90;;;;;;5092102;28;20044;-79
2023/06/23 03:16:30;;;;;;;;;;;17.10;99.90;;;;;;5125713;27;20047;-78
2023/06/23 03:19:29;;;;;;;0.45;0.45;;;17.00;99.90;;;;;;5074927;28;20018;-77
2023/06/23 03:22:16;;;;;;;5.38;0.43;;;17.00;99.90;;;;;;5091956;28;20614;-78
2023/06/23 03:24:44;;;;;;;0.30;0.30;;;17.00;99.90;;;;;;5091798;28;20082;-78
2023/06/23 03:27:13;;;;;;;0.50;0.50;;;16.90;99.90;;;;;;5074316;28;20048;-76
2023/06/23 03:29:53;;;;;;;0.28;0.28;;;16.90;99.90;;;;;;5091598;28;20044;-77
2023/06/23 03:32:26;;;;;;;0.40;0.40;;;16.90;99.90;;;;;;5092144;28;20040;-76
2023/06/23 03:35:03;;;;;;;0.90;0.85;;;16.80;99.90;;;;;;5092154;28;20052;-78
2023/06/23 03:37:31;;;;;;;0.20;0.20;;;16.80;99.90;;;;;;5091975;28;20044;-79
2023/06/23 03:40:01;;;;;;;0.47;0.47;;;16.70;99.90;;;;;;5092595;28;20043;-78
2023/06/23 03:42:28;;;;;;;0.50;0.50;;;16.60;99.90;;;;;;5092102;28;20508;-76
2023/06/23 03:44:57;;;;;;;0.52;0.52;;;16.50;99.90;;;;;;5092126;28;20127;-78
2023/06/23 03:47:25;;;;;;;0.22;0.22;;;16.50;99.90;;;;;;5075644;28;20696;-76
2023/06/23 03:49:55;;;;;;;0.40;0.40;;;16.40;99.90;;;;;;5091940;28;20146;-77
2023/06/23 03:52:23;;;;;;;0.60;0.57;;;16.30;99.90;;;;;;5092009;28;20130;-78
2023/06/23 03:54:52;;;;;;;0.30;0.30;;;16.30;99.90;;;;;;5092341;28;20485;-76
2023/06/23 03:57:22;;;;;;;0.20;0.20;;;16.20;99.90;;;;;;5091875;28;20051;-79
2023/06/23 03:59:50;;;;;;;0.43;0.43;;;16.20;99.90;;;;;;5091514;28;20496;-76
2023/06/23 04:02:20;;;;;;;0.57;0.57;;;16.10;99.90;;;;;;5074544;28;20071;-78
2023/06/23 04:04:48;;;;;;;0.40;0.40;;;16.10;99.90;;;;;;5075330;28;20155;-77
2023/06/23 04:07:14;;;;;;;0.82;0.82;;;16.00;99.90;;;;;;5091916;28;20047;-79
2023/06/23 04:09:44;;;;;;;0.30;0.30;;;16.00;99.90;;;;;;5074513;28;20047;-78
2023/06/23 04:12:13;;;;;;;1.05;0.43;;;16.00;99.90;;;;;;5091718;28;20435;-78
2023/06/23 04:14:41;;;;;;;0.20;0.20;;;16.00;99.90;;;;;;5091130;28;20043;-77
2023/06/23 04:17:09;;;;;;;0.20;0.20;;;15.90;99.90;;;;;;5091425;28;20115;-78
2023/06/23 04:19:36;;;;;;;0.22;0.22;;;15.90;99.90;;;;;;5091080;28;20036;-77
2023/06/23 04:22:06;;;;;;;0.75;0.63;;;15.90;99.90;;;;;;5091701;28;20087;-78
2023/06/23 04:24:35;;;;;;;0.60;0.60;;;16.00;99.90;;;;;;5074150;28;20123;-78
2023/06/23 04:27:04;;;;;;;0.30;0.30;;;16.00;99.90;;;;;;5091619;28;20048;-77
2023/06/23 04:29:31;;;;;;;0.30;0.30;;;16.00;99.90;;;;;;5090998;28;20039;-77
2023/06/23 04:31:58;;;;;;;0.85;0.85;;;16.00;99.90;;;;;;5091274;28;20055;-79
2023/06/23 04:34:24;;;;;;;0.20;0.20;;;16.10;99.90;;;;;;5091217;28;20047;-79
2023/06/23 04:37:12;;;;;;;;;;;16.10;99.90;;;;;;5090978;28;20040;-76
2023/06/23 04:39:43;;;;;;;;;;;16.20;99.90;;;;;;5087259;28;19919;-77
2023/06/23 04:42:13;;;;;;;0.32;0.32;;;16.30;99.90;;;;;;5091225;28;20561;-77
2023/06/23 04:44:46;;;;;;;0.13;0.13;;;16.30;99.90;;;;;;5090867;28;20051;-78
2023/06/23 04:47:14;;;;;;;0.30;0.30;;;16.40;99.90;;;;;;5091085;28;20105;-77
2023/06/23 04:49:42;;;;;;;0.85;0.85;;;16.50;99.90;;;;;;5090505;28;20050;-77
2023/06/23 04:52:09;;;;;;;0.35;0.35;;;16.50;99.90;;;;;;5090914;28;20050;-76
2023/06/23 04:54:40;;;;;;;0.22;0.22;;;16.50;99.90;;;;;;5090403;28;20040;-76
2023/06/23 04:57:14;;;;;;;0.63;0.63;;;16.60;99.90;;;;;;5091139;28;20032;-77
2023/06/23 04:59:45;;;;;;;0.50;0.50;;;16.60;99.90;;;;;;5089534;28;20079;-76
2023/06/23 05:02:12;;;;;;;0.88;0.88;;;16.60;99.90;;;;;;5091038;28;20492;-78
2023/06/23 05:04:40;;;;;;;1.65;1.17;;;16.70;99.90;;;;;;5089795;28;20055;-78
2023/06/23 05:07:08;;;;;;;1.38;1.27;;;16.70;99.90;;;;;;5090470;28;20505;-76
2023/06/23 05:09:35;;;;;;;0.68;0.65;;;16.80;99.90;;;;;;5090378;28;20052;-76
2023/06/23 05:12:03;;;;;;;0.20;0.20;;;16.90;99.90;;;;;;5090265;28;20075;-78
2023/06/23 05:14:30;;;;;;;2.50;1.55;;;16.90;99.90;;;;;;5090787;28;20042;-77
2023/06/23 05:16:59;;;;;;;0.50;0.50;;;17.00;99.90;;;;;;5073214;28;20082;-77
2023/06/23 05:19:29;;;;;;;1.95;0.40;;;17.10;99.90;;;;;;5090020;28;20048;-78
2023/06/23 05:21:57;;;;;;;0.55;0.55;;;17.10;99.90;;;;;;5090424;28;20075;-76
2023/06/23 05:24:25;;;;;;;0.20;0.20;;;17.10;99.90;;;;;;5073451;28;20044;-77
2023/06/23 05:26:54;;;;;;;0.93;0.90;;;17.20;99.90;;;;;;5090021;28;20047;-77
2023/06/23 05:29:22;;;;;;;0.45;0.45;;;17.20;99.90;;;;;;5090009;28;20123;-76
2023/06/23 05:31:50;;;;;;;0.75;0.75;;;17.20;99.90;;;;;;5073313;28;20040;-78
2023/06/23 05:34:18;;;;;;;0.35;0.35;;;17.10;99.90;;;;;;5089654;28;20043;-76
2023/06/23 05:36:46;;;;;;;0.63;0.57;;;17.10;99.90;;;;;;5072689;28;20087;-78
2023/06/23 05:39:16;;;;;;;0.50;0.50;;;17.10;99.90;;;;;;5073058;28;20066;-78
2023/06/23 05:41:42;;;;;;;0.30;0.30;;;17.00;99.90;;;;;;5089242;28;20044;-77
2023/06/23 05:44:08;;;;;;;;;;;17.00;99.90;;;;;;5090194;28;20108;-77
2023/06/23 05:46:37;;;;;;;1.42;1.33;;;17.00;99.90;;;;;;5089293;28;19927;-79
2023/06/23 05:49:08;;;;;;;1.02;0.93;;;17.00;99.90;;;;;;5089441;28;20161;-76
2023/06/23 05:51:35;;;;;;;1.05;0.95;;;16.90;99.90;;;;;;5089394;28;20484;-77
2023/06/23 05:54:08;;;;;;;2.10;1.35;;;16.90;99.90;;;;;;5089760;28;20437;-77
2023/06/23 05:56:40;;;;;;;0.50;0.50;;;16.90;99.90;;;;;;5089716;28;20396;-76
2023/06/23 05:59:10;;;;;;;0.50;0.50;;;16.90;99.90;;;;;;5089637;28;20492;-76
2023/06/23 06:01:40;;;;;;;1.52;1.42;;;17.00;99.90;;;;;;5088803;28;20051;-78
2023/06/23 06:04:09;;;;;;;1.98;1.05;;;17.00;99.90;;;;;;5055937;28;20123;-76
2023/06/23 06:06:38;;;;;;;0.98;0.98;;;17.00;99.90;;;;;;5088999;28;20054;-76
2023/06/23 06:09:10;;;;;;;0.95;0.88;;;17.10;99.90;;;;;;5089132;28;20465;-78
2023/06/23 06:11:37;;;;;;;0.60;0.55;;;17.20;99.90;;;;;;5072441;28;20036;-76
2023/06/23 06:14:07;;;;;;;0.70;0.70;;;17.30;99.90;;;;;;5090083;28;20040;-76
2023/06/23 06:16:34;;;;;;;1.02;1.02;;;17.50;99.90;;;;;;5073096;28;20042;-77
2023/06/23 06:19:01;;;;;;;0.38;0.38;;;17.60;99.90;;;;;;5072158;28;20036;-77
2023/06/23 06:21:30;;;;;;;0.75;0.75;;;17.80;99.90;;;;;;5072568;28;20048;-75
2023/06/23 06:23:58;;;;;;;0.52;0.52;;;18.00;99.90;;;;;;5071732;28;20048;-78
2023/06/23 06:26:25;;;;;;;2.70;2.40;;;18.10;99.90;;;;;;5089629;28;20385;-76
2023/06/23 06:28:54;;;;;;;0.63;0.63;;;18.30;99.90;;;;;;5089664;28;20071;-75
2023/06/23 06:31:21;;;;;;;1.42;1.33;;;18.40;99.90;;;;;;5089318;28;20151;-76
2023/06/23 06:33:50;;;;;;;0.25;0.25;;;18.50;99.90;;;;;;5088581;28;20131;-77
2023/06/23 06:36:18;;;;;;;0.93;0.93;;;18.70;99.90;;;;;;5088455;28;20873;-76
2023/06/23 06:38:47;;;;;;;0.80;0.80;;;18.80;99.90;;;;;;5088934;28;20480;-77
2023/06/23 06:41:13;;;;;;;0.80;0.70;;;18.90;99.90;;;;;;5072498;28;20109;-78
2023/06/23 06:43:39;;;;;;;0.35;0.30;;;19.00;99.90;;;;;;5071633;28;20038;-78
2023/06/23 06:46:06;;;;;;;0.85;0.77;;;19.00;99.90;;;;;;5071926;28;20036;-76
2023/06/23 06:48:34;;;;;;;0.68;0.68;;;19.10;99.90;;;;;;5072479;28;20158;-77
2023/06/23 06:51:01;;;;;;;0.15;0.15;;;19.20;99.90;;;;;;5088476;28;20093;-77
2023/06/23 06:53:29;;;;;;;0.20;0.20;;;19.40;99.90;;;;;;5089269;28;20044;-79
2023/06/23 06:55:56;;;;;;;0.28;0.28;;;19.50;99.90;;;;;;5071717;28;20072;-77
2023/06/23 06:58:22;;;;;;;0.25;0.25;;;19.70;99.90;;;;;;5088799;28;20109;-76
2023/06/23 07:00:48;;;;;;;0.52;0.52;;;19.80;99.90;;;;;;5071957;28;20068;-76
2023/06/23 07:03:15;;;;;;;1.33;1.27;;;19.90;99.90;;;;;;5088743;28;20079;-76
2023/06/23 07:05:40;;;;;;;2.38;0.60;;;20.00;99.90;;;;;;5088465;28;20047;-77
2023/06/23 07:08:06;;;;;;;0.40;0.40;;;20.10;99.90;;;;;;5088483;28;20131;-76
2023/06/23 07:10:34;;;;;;;0.22;0.22;;;20.30;99.90;;;;;;5089136;28;20052;-78
2023/06/23 07:13:00;;;;;;;0.93;0.93;;;20.40;99.90;;;;;;5071199;28;20148;-78
2023/06/23 07:15:26;;;;;;;0.77;0.73;;;20.50;99.90;;;;;;5088793;28;20079;-77
2023/06/23 07:17:52;;;;;;;0.47;0.47;;;20.50;99.90;;;;;;5088443;28;20078;-76
2023/06/23 07:20:17;;;;;;;0.65;0.65;;;20.60;99.90;;;;;;5088809;28;20048;-77
2023/06/23 07:22:44;;;;;;;0.40;0.40;;;20.70;99.90;;;;;;5090397;28;20086;-78
2023/06/23 07:25:09;;;;;;;0.70;0.70;;;20.80;99.90;;;;;;5092381;28;20178;-77
2023/06/23 07:27:36;;;;;;;0.20;0.20;;;20.90;99.90;;;;;;5092555;28;20138;-77
2023/06/23 07:30:02;;;;;;;0.88;0.82;;;21.00;99.90;;;;;;5091674;28;20050;-77
2023/06/23 07:32:28;;;;;;;0.30;0.30;;;21.00;99.90;;;;;;5091822;28;20107;-76
2023/06/23 07:34:54;;;;;;;0.45;0.38;;;21.20;99.90;;;;;;5091475;28;20047;-76
2023/06/23 07:37:19;;;;;;;0.70;0.68;;;21.30;99.90;;;;;;5091816;28;20491;-77
2023/06/23 07:39:45;;;;;;;0.60;0.60;;;21.30;99.90;;;;;;5091912;28;20040;-76
2023/06/23 07:42:11;;;;;;;0.20;0.20;;;21.30;99.90;;;;;;5074985;28;20040;-76
2023/06/23 07:44:37;;;;;;;1.08;0.95;;;21.30;99.90;;;;;;5091965;28;20405;-77
2023/06/23 07:47:03;;;;;;;0.22;0.22;;;21.30;99.90;;;;;;5091487;28;20048;-79
2023/06/23 07:49:29;;;;;;;0.20;0.20;;;21.40;99.90;;;;;;5091877;28;20052;-76
2023/06/23 07:52:00;;;;;;;0.32;0.32;;;21.60;99.90;;;;;;5074673;28;20118;-78
2023/06/23 07:54:27;;;;;;;1.20;1.10;;;21.70;99.90;;;;;;5091816;28;20072;-78
2023/06/23 07:56:53;;;;;;;0.90;0.85;;;21.70;99.90;;;;;;5074686;28;20079;-79
2023/06/23 07:59:18;;;;;;;0.45;0.43;;;21.70;99.90;;;;;;5075178;28;20072;-77
2023/06/23 08:01:44;;;;;;;0.30;0.30;;;21.80;99.90;;;;;;5091354;28;20459;-76
2023/06/23 08:04:10;;;;;;;2.75;0.75;;;21.90;99.90;;;;;;5091335;28;20431;-78
2023/06/23 08:06:35;;;;;;;0.20;0.20;;;22.00;99.90;;;;;;5091745;28;20067;-77
2023/06/23 08:09:01;;;;;;;0.40;0.40;;;22.10;99.90;;;;;;5091293;28;20126;-76
2023/06/23 08:11:27;;;;;;;0.43;0.43;;;22.20;99.90;;;;;;5078916;28;20043;-76
2023/06/23 08:13:53;;;;;;;0.32;0.32;;;22.20;99.90;;;;;;5090958;28;20044;-78
2023/06/23 08:16:19;;;;;;;1.77;1.20;;;22.30;99.90;;;;;;5091402;28;20071;-78
2023/06/23 08:18:45;;;;;;;0.70;0.70;;;22.30;99.90;;;;;;5074683;28;20075;-77
2023/06/23 08:21:11;;;;;;;0.30;0.30;;;22.30;99.90;;;;;;5091615;28;20036;-79
2023/06/23 08:23:36;;;;;;;0.63;0.50;;;22.30;99.90;;;;;;5091576;28;20044;-77
2023/06/23 08:26:02;;;;;;;0.60;0.60;;;22.30;99.90;;;;;;5091159;28;20361;-77
2023/06/23 08:28:28;;;;;;;0.20;0.20;;;22.30;99.90;;;;;;5091873;28;20044;-79
2023/06/23 08:30:55;;;;;;;0.95;0.52;;;22.30;99.90;;;;;;5090847;28;20044;-77
2023/06/23 08:33:21;;;;;;;0.30;0.30;;;22.30;99.90;;;;;;5090328;28;20040;-78
2023/06/23 08:35:46;;;;;;;2.17;0.93;;;22.40;99.90;;;;;;5090826;28;20067;-77
2023/06/23 08:38:14;;;;;;;0.63;0.63;;;22.50;99.90;;;;;;5091217;28;20383;-77
2023/06/23 08:40:41;;;;;;;1.98;0.55;;;22.60;99.90;;;;;;5090985;28;20048;-78
2023/06/23 08:43:09;;;;;;;0.32;0.32;;;22.60;99.90;;;;;;5073820;28;20036;-78
2023/06/23 08:45:42;;;;;;;0.73;0.73;;;22.70;99.90;;;;;;5074186;28;20083;-79
2023/06/23 08:48:11;;;;;;;0.40;0.40;;;22.70;99.90;;;;;;5090329;28;20040;-77
2023/06/23 08:50:37;;;;;;;1.67;0.93;;;22.70;99.90;;;;;;5092139;28;20036;-78
2023/06/23 08:53:06;;;;;;;0.90;0.30;;;22.80;99.90;;;;;;5090336;28;20042;-77
2023/06/23 08:55:33;;;;;;;1.15;0.70;;;22.80;99.90;;;;;;5090324;28;20072;-80
2023/06/23 08:58:01;;;;;;;0.63;0.63;;;22.90;99.90;;;;;;5072770;28;20032;-77
2023/06/23 09:00:27;;;;;;;1.00;0.50;;;22.90;99.90;;;;;;5089357;28;20144;-78
2023/06/23 09:02:54;;;;;;;0.55;0.55;;;22.80;99.90;;;;;;5107010;28;20048;-78
2023/06/23 09:05:20;;;;;;;0.60;0.60;;;22.80;99.90;;;;;;5090240;28;20044;-80
2023/06/23 09:07:47;;;;;;;0.43;0.43;;;22.90;99.90;;;;;;5090461;28;20052;-77
2023/06/23 09:10:13;;;;;;;0.60;0.60;;;22.90;99.90;;;;;;5073418;28;20386;-77
2023/06/23 09:12:55;;;;;;;0.22;0.22;;;23.00;99.90;;;;;;5107228;28;20040;-78
2023/06/23 09:15:21;;;;;;;0.68;0.68;;;23.00;99.90;;;;;;5089989;28;20109;-77
2023/06/23 09:17:48;;;;;;;0.52;0.45;;;23.00;99.90;;;;;;5090263;28;20086;-77
2023/06/23 09:20:15;;;;;;;0.40;0.40;;;23.00;99.90;;;;;;5090466;28;20086;-77
2023/06/23 09:22:43;;;;;;;0.98;0.88;;;23.00;99.90;;;;;;5090268;28;20105;-77
2023/06/23 09:25:09;;;;;;;0.68;0.68;;;22.90;99.90;;;;;;5089718;28;20125;-77
2023/06/23 09:27:41;;;;;;;0.65;0.65;;;23.10;99.90;;;;;;5090726;28;20056;-77
2023/06/23 09:30:08;;;;;;;0.30;0.30;;;23.20;99.90;;;;;;5089771;28;20214;-78
2023/06/23 09:32:33;;;;;;;0.30;0.30;;;23.10;99.90;;;;;;5089363;28;20051;-78
2023/06/23 09:34:59;;;;;;;0.30;0.30;;;23.10;99.90;;;;;;5089570;28;20052;-77
2023/06/23 09:37:33;;;;;;;0.60;0.57;;;23.10;99.90;;;;;;5073165;28;20131;-77
2023/06/23 09:39:59;;;;;;;0.20;0.20;;;23.10;99.90;;;;;;5089551;28;20071;-77
2023/06/23 09:42:24;;;;;;;0.73;0.73;;;23.10;99.90;;;;;;5089191;28;20125;-76
2023/06/23 09:44:50;;;;;;;0.43;0.43;;;23.00;99.90;;;;;;5089363;28;20044;-77
2023/06/23 09:47:18;;;;;;;0.20;0.20;;;23.10;99.90;;;;;;5056109;28;20470;-76
2023/06/23 09:49:49;;;;;;;0.98;0.82;;;23.20;99.90;;;;;;5089409;28;20044;-78
2023/06/23 09:52:25;;;;;;;0.50;0.40;;;23.30;99.90;;;;;;5072090;28;20040;-77
2023/06/23 09:54:51;;;;;;;0.30;0.28;;;23.50;99.90;;;;;;5089817;28;20040;-77
2023/06/23 09:57:19;;;;;;;0.55;0.55;;;23.60;99.90;;;;;;5089524;28;20039;-78
2023/06/23 09:59:48;;;;;;;0.32;0.32;;;23.60;99.90;;;;;;5072457;28;20040;-78
2023/06/23 10:02:29;;;;;;;0.68;0.68;;;23.50;99.90;;;;;;5088916;28;20457;-77
2023/06/23 10:05:03;;;;;;;0.50;0.50;;;23.50;99.90;;;;;;5088874;28;20485;-77
2023/06/23 10:07:30;;;;;;;1.42;0.90;;;23.70;99.90;;;;;;5089435;28;20047;-77
2023/06/23 10:09:58;;;;;;;0.28;0.28;;;23.80;99.90;;;;;;5089405;28;20082;-79
2023/06/23 10:12:26;;;;;;;0.70;0.65;;;23.80;99.90;;;;;;5089210;28;20040;-78
2023/06/23 10:14:55;;;;;;;1.38;0.60;;;23.80;99.90;;;;;;5072518;28;20495;-77
2023/06/23 10:17:21;;;;;;;1.38;0.63;;;23.90;99.90;;;;;;5089586;28;20040;-78
2023/06/23 10:19:51;;;;;;;0.32;0.32;;;24.00;99.90;;;;;;5089071;28;20050;-78
2023/06/23 10:22:19;;;;;;;0.40;0.40;;;24.10;99.90;;;;;;5088960;28;20050;-79
2023/06/23 10:24:47;;;;;;;0.82;0.82;;;24.10;99.60;;;;;;5089218;28;20044;-78
2023/06/23 10:27:33;;;;;;;0.65;0.65;;;24.00;99.90;;;;;;5088596;28;20105;-77
2023/06/23 10:30:00;;;;;;;0.65;0.65;;;24.00;99.90;;;;;;5088842;28;20066;-78
2023/06/23 10:32:33;;;;;;;0.20;0.20;;;24.00;99.90;;;;;;5089076;28;20559;-77
2023/06/23 10:35:06;;;;;;;0.73;0.73;;;23.90;99.90;;;;;;5088729;28;20052;-79
2023/06/23 10:37:32;;;;;;;1.52;1.42;;;23.90;99.90;;;;;;5090606;28;20044;-78
2023/06/23 10:40:02;;;;;;;0.40;0.40;;;24.10;99.90;;;;;;5089008;28;20058;-78
2023/06/23 10:42:31;;;;;;;0.35;0.35;;;24.20;99.90;;;;;;5089303;28;20123;-79
2023/06/23 10:44:58;;;;;;;0.38;0.32;;;24.20;99.90;;;;;;5088727;28;20476;-78
2023/06/23 10:47:25;;;;;;;0.35;0.25;;;24.30;99.90;;;;;;5089330;28;20377;-79
2023/06/23 10:49:51;;;;;;;1.17;1.08;;;24.40;99.90;;;;;;5089103;28;20076;-78
2023/06/23 10:52:17;;;;;;;0.15;0.15;;;24.60;99.90;;;;;;5088671;28;20518;-78
2023/06/23 10:54:43;;;;;;;0.28;0.28;;;24.70;99.60;;;;;;5072193;28;20106;-78
2023/06/23 10:57:10;;;;;;;0.50;0.50;;;24.60;99.70;;;;;;5073257;28;20048;-78
2023/06/23 10:59:44;;;;;;;1.45;1.05;;;24.50;99.90;;;;;;5093049;28;20052;-78
2023/06/23 11:02:17;;;;;;;0.32;0.32;;;24.30;99.90;;;;;;5092293;28;20048;-78
2023/06/23 11:05:01;;;;;;;0.80;0.60;;;24.30;99.90;;;;;;5092785;28;20055;-77
2023/06/23 11:07:27;;;;;;;0.75;0.75;;;24.30;99.90;;;;;;5092725;28;20066;-78
2023/06/23 11:09:58;;;;;;;1.00;0.60;;;24.50;99.90;;;;;;5092664;28;20059;-79
2023/06/23 11:12:37;;;;;;;3.42;2.00;;;24.50;99.90;;;;;;5092735;28;20093;-78
2023/06/23 11:15:13;;;;;;;0.80;0.75;;;24.30;99.90;;;;;;5092288;28;20040;-77
2023/06/23 11:17:46;;;;;;;;;;;24.20;99.90;;;;;;5093310;28;20044;-77
2023/06/23 11:20:24;;;;;;;1.10;1.05;;;24.00;99.90;;;;;;5092381;28;19916;-81
2023/06/23 11:23:09;;;;;;;0.60;0.40;;;24.10;99.90;;;;;;5075539;28;20473;-77
2023/06/23 11:25:44;;;;;;;0.43;0.43;;;24.10;99.90;;;;;;5056058;28;20048;-77
2023/06/23 11:28:33;;;;;;;4.50;0.68;;;24.20;99.90;;;;;;5089288;28;20385;-76
2023/06/23 11:31:11;;;;;;;0.90;0.90;;;24.30;99.90;;;;;;5072523;28;20052;-76
2023/06/23 11:33:38;;;;;;;0.47;0.47;;;24.30;99.90;;;;;;5105903;28;20052;-79
2023/06/23 11:36:24;;;;;;;1.23;1.20;;;24.30;99.90;;;;;;5105618;28;20063;-77
2023/06/23 11:38:51;;;;;;;0.93;0.88;;;24.30;99.90;;;;;;5106512;28;20557;-78
2023/06/23 11:41:37;;;;;;;0.30;0.30;;;24.20;99.90;;;;;;5071357;28;20044;-78
2023/06/23 11:44:03;;;;;;;0.85;0.82;;;24.10;99.90;;;;;;5056998;28;20062;-81
2023/06/23 11:46:34;;;;;;;0.52;0.52;;;24.20;99.90;;;;;;5055224;28;20044;-78
2023/06/23 11:49:12;;;;;;;0.47;0.47;;;24.20;99.90;;;;;;5105717;28;20629;-77
2023/06/23 11:51:39;;;;;;;1.00;0.90;;;24.10;99.90;;;;;;5088923;28;20033;-77
2023/06/23 11:54:06;;;;;;;0.52;0.52;;;24.20;99.90;;;;;;5106164;28;20667;-79
2023/06/23 11:56:33;;;;;;;0.30;0.30;;;24.20;99.90;;;;;;5088641;28;20539;-79
2023/06/23 11:59:02;;;;;;;1.58;1.48;;;24.20;99.90;;;;;;5105970;28;20040;-79
2023/06/23 12:01:28;;;;;;;0.55;0.55;;;24.20;99.90;;;;;;5080928;28;20044;-77
2023/06/23 12:03:54;;;;;;;0.32;0.32;;;24.20;99.90;;;;;;5091908;28;20051;-77
2023/06/23 12:06:22;;;;;;;0.68;0.68;;;24.20;99.90;;;;;;5091693;28;20036;-77
2023/06/23 12:08:52;;;;;;;0.88;0.52;;;24.30;99.90;;;;;;5091164;28;20123;-77
2023/06/23 12:11:19;;;;;;;0.90;0.90;;;24.40;99.70;;;;;;5091654;28;20040;-81
2023/06/23 12:13:50;;;;;;;3.30;0.73;;;24.40;98.50;;;;;;5091684;28;20131;-80
2023/06/23 12:16:16;;;;;;;0.38;0.32;;;24.40;98.10;;;;;;5091351;28;20044;-79
2023/06/23 12:18:46;;;;;;;0.40;0.38;;;24.40;97.80;;;;;;5074564;28;20032;-77
2023/06/23 12:21:14;;;;;;;1.25;1.13;;;24.40;97.70;;;;;;5090817;28;20533;-79
2023/06/23 12:23:40;;;;;;;0.68;0.60;;;24.50;95.10;;;;;;5091260;28;20044;-77
2023/06/23 12:26:07;;;;;;;1.15;1.13;;;24.60;95.70;;;;;;5091431;28;20056;-76
2023/06/23 12:28:33;;;;;;;0.98;0.70;;;24.70;95.60;;;;;;5091567;28;20052;-77
2023/06/23 12:30:58;;;;;;;2.42;0.75;;;25.00;94.80;;;;;;5074551;28;20554;-78
2023/06/23 12:33:29;;;;;;;1.85;0.85;;;25.20;94.40;;;;;;5090464;28;20054;-78
2023/06/23 12:36:02;;;;;;;0.32;0.32;;;25.40;93.10;;;;;;5090462;28;20128;-76
2023/06/23 12:38:30;;;;;;;0.30;0.30;;;25.40;92.40;;;;;;5091314;28;20047;-79
2023/06/23 12:41:40;;;;;;;0.60;0.60;;;25.40;91.00;;;;;;5074225;28;20085;-80
2023/06/23 12:44:06;;;;;;;0.52;0.45;;;25.20;89.50;;;;;;5087747;28;20044;-77
2023/06/23 12:46:32;;;;;;;0.20;0.20;;;25.10;90.90;;;;;;5090696;28;20639;-76
2023/06/23 12:48:58;;;;;;;0.38;0.38;;;25.20;88.70;;;;;;5090547;28;20051;-78
2023/06/23 12:51:34;;;;;;;0.35;0.35;;;25.40;90.20;;;;;;5089913;28;20114;-80
2023/06/23 12:54:01;;;;;;;1.23;1.10;;;25.60;88.30;;;;;;5090928;28;20047;-80
2023/06/23 12:56:27;;;;;;;0.25;0.25;;;25.80;87.80;;;;;;5090942;28;20446;-79
2023/06/23 12:58:53;;;;;;;0.70;0.40;;;26.00;87.40;;;;;;5090647;28;20048;-78
2023/06/23 13:01:18;;;;;;;0.80;0.68;;;26.10;85.80;;;;;;5090040;28;20040;-81